• Join FlightAware (Why Join?)
  • Login
  • US Flag 
01:25AM EDT


 

Airport Tracker/Info


-or-


 

Live Flight TrackerFlight Track Log ✈ AWI3833 ✈ 31-Jul-2013 ✈ KPHL - KSYR

Flight Track Log - Related Links

Times and Time Zones

All times are in EDT time to prevent confusion due to time zone crossing. See the AWI3833 flight status page for this flight to view local times or setup timezone preferences in your user account.

Time Position Orientation Groundspeed Altitude Reporting Facility
EDT Latitude Longitude Course Direction KTS MPH feet Rate Location/Type
02:49PM 39.8667 -75.2667 323° Northwest 171 197 500  Level Philadelphia TRACON
02:50PM 39.8500 -75.3500 255° West 229 264 2,400 1,740 Climbing Philadelphia TRACON
02:51PM 40.0962 -75.4461 323° Northwest  Level FlightAware Approximate
02:51PM 39.8333 -75.4333 255° West 270 311 4,200  Level Philadelphia TRACON
02:52PM 40.1742 -75.5241 323° Northwest  Level FlightAware Approximate
02:52PM 39.8833 -75.5167 308° West 272 313 6,900  Level Philadelphia TRACON
02:52PM 39.9056 -75.5172 359° North 267 307 7,800 1,920 Climbing New York Center
02:53PM 40.2489 -75.5983 311° West  Level FlightAware Approximate
02:53PM 39.9906 -75.5286 354° North 309 356 9,900  Level New York Center
02:54PM 40.3135 -75.6952 311° West  Level FlightAware Approximate
02:54PM 40.0733 -75.5425 353° North 302 348 11,800  Level New York Center
02:55PM 40.3766 -75.7933 323° Northwest  Level FlightAware Approximate
02:55PM 40.1583 -75.5536 354° North 302 348 13,400  Level New York Center
02:56PM 40.2442 -75.5950 340° North 331 381 14,000 240 Climbing New York Center
02:57PM 40.3089 -75.6919 311° West 341 392 14,000  Level New York Center
02:58PM 40.3678 -75.7806 311° West 341 392 14,000  Level New York Center
02:59PM 40.4206 -75.8581 312° West 326 375 14,000  Level New York Center
03:00PM 40.4853 -75.9531 312° West 321 369 14,000  Level New York Center
03:01PM 40.5381 -76.0306 312° West 321 369 14,000  Level New York Center
03:02PM 40.5986 -76.1256 310° West 316 364 14,000  Level New York Center
03:03PM 40.6550 -76.2147 310° West 316 364 14,000  Level New York Center
03:04PM 40.7367 -76.2458 344° North 289 333 14,000  Level New York Center
03:05PM 40.8164 -76.2386 North 300 345 14,000  Level New York Center
03:06PM 40.9042 -76.2319 North 308 354 14,000  Level New York Center
03:07PM 41.0003 -76.2258 North 315 362 14,000  Level New York Center
03:08PM 41.0881 -76.2192 North 315 362 14,000  Level New York Center
03:09PM 41.1675 -76.2117 North 315 362 14,000  Level New York Center
03:10PM 41.2575 -76.2053 North 315 362 14,000  Level New York Center
03:11PM 41.3536 -76.1992 North 315 362 14,000  Level New York Center
03:12PM 41.4433 -76.1925 North 315 362 14,000  Level New York Center
03:13PM 41.5311 -76.1858 North 315 362 14,000  Level New York Center
03:14PM 41.6128 -76.1814 North 315 362 14,000 -420 Level New York Center
03:15PM 41.7003 -76.1800 North 309 356 13,200 -960 Descending New York Center
03:16PM 41.7939 -76.1819 359° North 309 356 12,100 -1,080 Descending New York Center
03:17PM 41.8811 -76.1836 359° North 309 356 11,100 -540 Descending New York Center
03:18PM 41.9664 -76.1850 359° North 309 356 11,100  Level New York Center
03:19PM 42.0394 -76.1853 360° North 304 350 11,100  Level New York Center
03:20PM 42.1206 -76.1864 359° North 293 337 11,100  Level New York Center
03:21PM 42.2017 -76.1875 359° North 287 330 11,100  Level New York Center
03:22PM 42.2828 -76.1886 359° North 287 330 11,100 -60 Level New York Center
03:24PM 42.4592 -76.1947 359° North 327 376 11,000 -60 Descending Boston Center
03:25PM 42.5467 -76.1944 360° North 318 366 11,000  Level Boston Center
03:26PM 42.6239 -76.1989 358° North 307 353 11,000 -1,080 Level Boston Center
03:27PM 42.7064 -76.1558 21° North 297 342 8,900 -1,980 Descending Boston Center
03:28PM 42.7719 -76.1289 17° North 288 331 7,300 -1,980 Descending Boston Center
03:29PM 42.8608 -76.0858 20° North 278 320 5,000 -1,500 Descending Boston Center
03:30PM 42.9350 -76.0564 16° North 266 306 4,000 -780 Descending Boston Center
03:31PM 43.0044 -76.0292 16° North 265 305 3,400 -840 Descending Boston Center
03:32PM 43.0719 -76.0103 12° North 227 261 2,400 -1,020 Descending Boston Center
03:34PM 43.1103 -76.0494 323° Northwest 135 155 1,200 -1,020 Descending Boston Center